createdAt,value
2022-10-15T00:00:24.946Z,11.27
2022-10-15T00:02:52.689Z,10.10
2022-10-15T00:05:20.397Z,10.37
2022-10-15T00:07:49.651Z,10.07
2022-10-15T00:10:17.790Z,10.93
2022-10-15T00:12:45.552Z,9.43
2022-10-15T00:15:13.473Z,10.63
2022-10-15T00:17:41.451Z,10.57
2022-10-15T00:20:11.572Z,10.03
2022-10-15T00:22:39.333Z,11.20
2022-10-15T00:25:09.925Z,9.67
2022-10-15T00:27:38.307Z,9.07
2022-10-15T00:30:07.226Z,11.70
2022-10-15T00:32:35.109Z,9.27
2022-10-15T00:35:02.808Z,8.70
2022-10-15T00:37:30.484Z,9.17
2022-10-15T00:39:58.250Z,10.30
2022-10-15T00:42:27.354Z,9.43
2022-10-15T00:44:57.494Z,10.00
2022-10-15T00:47:29.194Z,9.50
2022-10-15T00:50:01.702Z,8.93
2022-10-15T00:52:38.973Z,8.60
2022-10-15T00:55:11.143Z,12.57
2022-10-15T00:57:41.138Z,8.83
2022-10-15T01:00:12.126Z,9.53
2022-10-15T01:02:40.233Z,10.50
2022-10-15T01:05:09.399Z,9.30
2022-10-15T01:07:37.082Z,9.20
2022-10-15T01:10:07.270Z,9.30
2022-10-15T01:12:49.528Z,9.20
2022-10-15T01:15:23.995Z,10.40
2022-10-15T01:17:56.199Z,9.23
2022-10-15T01:20:48.850Z,10.87
2022-10-15T01:24:10.407Z,9.20
2022-10-15T01:27:17.809Z,9.10
2022-10-15T01:30:05.003Z,8.87
2022-10-15T01:32:38.303Z,8.47
2022-10-15T01:35:17.404Z,12.00
2022-10-15T01:37:53.319Z,9.43
2022-10-15T01:40:26.622Z,9.23
2022-10-15T01:42:58.959Z,10.83
2022-10-15T01:45:33.307Z,9.47
2022-10-15T01:48:07.268Z,10.07
2022-10-15T01:50:39.334Z,10.17
2022-10-15T01:53:09.267Z,11.03
2022-10-15T01:55:38.795Z,9.33
2022-10-15T01:58:07.568Z,10.90
2022-10-15T02:00:35.434Z,9.57
2022-10-15T02:03:05.838Z,8.90
2022-10-15T02:05:40.054Z,9.13
2022-10-15T02:08:15.480Z,11.07
2022-10-15T02:10:50.453Z,8.90
2022-10-15T02:13:25.314Z,9.13
2022-10-15T02:16:02.680Z,9.93
2022-10-15T02:18:40.901Z,9.80
2022-10-15T02:21:15.675Z,8.97
2022-10-15T02:23:49.543Z,9.23
2022-10-15T02:26:18.303Z,12.17
2022-10-15T02:28:52.144Z,9.53
2022-10-15T02:31:23.993Z,11.07
2022-10-15T02:33:55.026Z,9.33
2022-10-15T02:36:23.342Z,9.60
2022-10-15T02:38:53.055Z,8.67
2022-10-15T02:41:21.426Z,10.07
2022-10-15T02:43:49.487Z,9.50
2022-10-15T02:46:19.756Z,9.47
2022-10-15T02:48:47.500Z,10.17
2022-10-15T02:51:16.615Z,10.07
2022-10-15T02:53:44.273Z,10.70
2022-10-15T02:56:11.957Z,9.93
2022-10-15T02:58:39.643Z,10.10
2022-10-15T03:01:08.109Z,11.50
2022-10-15T03:03:35.875Z,9.50
2022-10-15T03:06:03.569Z,9.57
2022-10-15T03:08:32.989Z,9.30
2022-10-15T03:11:00.894Z,9.50
2022-10-15T03:13:28.993Z,11.00
2022-10-15T03:15:57.269Z,12.17
2022-10-15T03:18:24.953Z,10.00
2022-10-15T03:20:56.241Z,12.33
2022-10-15T03:23:24.510Z,9.70
2022-10-15T03:25:54.267Z,13.33
2022-10-15T03:28:23.389Z,10.50
2022-10-15T03:30:51.363Z,9.53
2022-10-15T03:33:20.871Z,11.13
2022-10-15T03:35:51.861Z,10.73
2022-10-15T03:38:19.777Z,10.83
2022-10-15T03:40:47.857Z,10.00
2022-10-15T03:43:16.984Z,10.50
2022-10-15T03:45:44.731Z,10.77
2022-10-15T03:48:12.424Z,10.33
2022-10-15T03:50:40.155Z,11.27
2022-10-15T03:53:07.874Z,10.63
2022-10-15T03:55:35.754Z,11.77
2022-10-15T03:58:03.587Z,11.57
2022-10-15T04:00:32.707Z,11.47
2022-10-15T04:03:00.435Z,11.20
2022-10-15T04:05:28.180Z,11.27
2022-10-15T04:07:55.896Z,12.00
2022-10-15T04:10:23.618Z,13.60
2022-10-15T04:12:51.339Z,11.73
2022-10-15T04:15:19.252Z,12.53
2022-10-15T04:17:48.323Z,11.90
2022-10-15T04:20:16.074Z,15.70
2022-10-15T04:22:43.771Z,12.20
2022-10-15T04:25:11.467Z,13.27
2022-10-15T04:27:39.706Z,12.03
2022-10-15T04:30:08.386Z,13.77
2022-10-15T04:32:36.146Z,12.43
2022-10-15T04:35:05.986Z,11.97
2022-10-15T04:37:34.420Z,12.83
2022-10-15T04:40:02.232Z,11.93
2022-10-15T04:42:30.615Z,12.83
2022-10-15T04:44:58.685Z,12.60
2022-10-15T04:47:26.627Z,12.10
2022-10-15T04:49:54.449Z,14.40
2022-10-15T04:52:23.565Z,13.03
2022-10-15T04:54:51.271Z,15.33
2022-10-15T04:57:19.063Z,15.57
2022-10-15T04:59:46.775Z,18.10
2022-10-15T05:02:14.572Z,14.30
2022-10-15T05:04:42.322Z,13.27
2022-10-15T05:07:10.069Z,14.73
2022-10-15T05:09:42.811Z,12.97
2022-10-15T05:12:13.089Z,14.17
2022-10-15T05:14:41.886Z,16.13
2022-10-15T05:17:09.589Z,12.53
2022-10-15T05:19:37.282Z,13.30
2022-10-15T05:22:04.966Z,14.87
2022-10-15T05:24:32.658Z,13.70
2022-10-15T05:27:03.067Z,13.17
2022-10-15T05:29:31.191Z,12.83
2022-10-15T05:31:58.872Z,13.37
2022-10-15T05:34:28.579Z,12.87
2022-10-15T05:36:56.277Z,15.07
2022-10-15T05:39:24.016Z,13.63
2022-10-15T05:41:53.447Z,14.53
2022-10-15T05:44:22.490Z,16.07
2022-10-15T05:46:50.168Z,17.90
2022-10-15T05:49:19.173Z,15.40
2022-10-15T05:51:46.909Z,14.63
2022-10-15T05:54:14.805Z,19.60
2022-10-15T05:56:42.494Z,16.97
2022-10-15T05:59:10.357Z,16.33
2022-10-15T06:01:39.458Z,16.27
2022-10-15T06:04:07.440Z,17.77
2022-10-15T06:06:35.509Z,18.87
2022-10-15T06:09:03.329Z,17.60
2022-10-15T06:11:31.023Z,19.60
2022-10-15T06:13:58.711Z,19.03
2022-10-15T06:16:26.468Z,21.63
2022-10-15T06:18:55.556Z,16.20
2022-10-15T06:21:23.337Z,20.93
2022-10-15T06:23:51.170Z,24.10
2022-10-15T06:26:18.893Z,19.67
2022-10-15T06:28:46.714Z,16.47
2022-10-15T06:31:14.455Z,17.97
2022-10-15T06:33:42.154Z,18.60
2022-10-15T06:36:13.627Z,24.60
2022-10-15T06:38:44.002Z,20.50
2022-10-15T06:41:12.052Z,21.17
2022-10-15T06:43:39.845Z,19.30
2022-10-15T06:46:07.737Z,19.10
2022-10-15T06:48:35.983Z,19.27
2022-10-15T06:51:05.134Z,17.73
2022-10-15T06:53:34.257Z,19.60
2022-10-15T06:56:03.700Z,20.40
2022-10-15T06:58:31.541Z,19.37
2022-10-15T07:01:02.550Z,19.23
2022-10-15T07:03:30.419Z,18.80
2022-10-15T07:06:02.294Z,22.37
2022-10-15T07:08:30.034Z,18.27
2022-10-15T07:10:59.131Z,21.20
2022-10-15T07:13:26.934Z,21.67
2022-10-15T07:15:55.960Z,21.07
2022-10-15T07:18:23.815Z,21.57
2022-10-15T07:20:51.590Z,25.83
2022-10-15T07:23:21.764Z,23.13
2022-10-15T07:25:50.676Z,26.13
2022-10-15T07:28:19.919Z,24.00
2022-10-15T07:30:47.611Z,22.33
2022-10-15T07:33:15.398Z,23.70
2022-10-15T07:35:43.157Z,22.73
2022-10-15T07:38:10.926Z,23.23
2022-10-15T07:40:38.626Z,25.07
2022-10-15T07:43:06.341Z,22.83
2022-10-15T07:45:36.000Z,22.53
2022-10-15T07:48:03.821Z,24.70
2022-10-15T07:50:34.271Z,21.87
2022-10-15T07:53:04.037Z,22.10
2022-10-15T07:55:31.712Z,22.23
2022-10-15T07:57:59.648Z,21.07
2022-10-15T08:00:29.273Z,24.73
2022-10-15T08:02:58.649Z,24.10
2022-10-15T08:05:26.361Z,27.07
2022-10-15T08:07:54.089Z,26.53
2022-10-15T08:10:21.773Z,24.23
2022-10-15T08:12:49.477Z,24.67
2022-10-15T08:15:20.021Z,23.57
2022-10-15T08:17:47.743Z,24.77
2022-10-15T08:20:16.943Z,21.37
2022-10-15T08:22:44.691Z,21.03
2022-10-15T08:25:12.744Z,21.20
2022-10-15T08:27:40.453Z,20.77
2022-10-15T08:30:09.311Z,20.43
2022-10-15T08:32:37.179Z,19.90
2022-10-15T08:35:05.033Z,20.13
2022-10-15T08:37:34.191Z,18.03
2022-10-15T08:40:01.865Z,18.67
2022-10-15T08:42:33.441Z,20.30
2022-10-15T08:45:05.212Z,19.60
2022-10-15T08:47:39.456Z,18.17
2022-10-15T08:50:18.557Z,20.63
2022-10-15T08:52:49.518Z,19.20
2022-10-15T08:55:19.561Z,16.97
2022-10-15T08:57:53.077Z,17.80
2022-10-15T09:00:22.611Z,16.73
2022-10-15T09:02:58.587Z,16.63
2022-10-15T09:05:33.828Z,17.13
2022-10-15T09:08:09.459Z,18.43
2022-10-15T09:10:44.157Z,22.03
2022-10-15T09:13:22.455Z,19.77
2022-10-15T09:15:58.460Z,16.87
2022-10-15T09:18:31.014Z,15.87
2022-10-15T09:21:00.313Z,15.93
2022-10-15T09:23:30.820Z,15.33
2022-10-15T09:26:06.497Z,16.60
2022-10-15T09:28:41.999Z,15.53
2022-10-15T09:31:36.514Z,17.60
2022-10-15T09:34:11.513Z,19.43
2022-10-15T09:36:45.761Z,17.53
2022-10-15T09:39:38.221Z,16.57
2022-10-15T09:42:17.673Z,18.70
2022-10-15T09:44:47.801Z,16.93
2022-10-15T09:47:18.535Z,16.00
2022-10-15T09:49:46.395Z,14.97
2022-10-15T09:52:22.574Z,13.43
2022-10-15T09:55:03.321Z,14.03
2022-10-15T09:57:33.575Z,13.40
2022-10-15T10:00:03.497Z,13.47
2022-10-15T10:02:31.894Z,13.43
2022-10-15T10:05:20.577Z,13.60
2022-10-15T10:07:48.354Z,14.17
2022-10-15T10:10:29.260Z,12.87
2022-10-15T10:12:57.838Z,12.53
2022-10-15T10:15:33.769Z,14.47
2022-10-15T10:18:01.880Z,14.07
2022-10-15T10:20:31.002Z,12.50
2022-10-15T10:23:01.147Z,13.53
2022-10-15T10:25:42.435Z,11.07
2022-10-15T10:28:20.682Z,13.83
2022-10-15T10:31:03.387Z,13.87
2022-10-15T10:33:33.669Z,12.23
2022-10-15T10:36:07.579Z,12.53
2022-10-15T10:38:37.857Z,11.03
2022-10-15T10:41:09.793Z,11.33
2022-10-15T10:43:39.721Z,9.97
2022-10-15T10:46:18.044Z,9.63
2022-10-15T10:48:47.821Z,8.30
2022-10-15T10:51:19.348Z,9.57
2022-10-15T10:53:56.803Z,8.20
2022-10-15T10:56:31.297Z,9.17
2022-10-15T10:59:03.094Z,13.87
2022-10-15T11:01:30.999Z,7.87
2022-10-15T11:03:58.855Z,7.40
2022-10-15T11:06:56.992Z,8.90
2022-10-15T11:09:56.557Z,9.03
2022-10-15T11:13:03.992Z,7.57
2022-10-15T11:15:46.472Z,7.73
2022-10-15T11:18:34.194Z,6.60
2022-10-15T11:21:18.369Z,8.37
2022-10-15T11:24:01.309Z,9.57
2022-10-15T11:26:58.744Z,6.57
2022-10-15T11:29:37.299Z,7.07
2022-10-15T11:32:17.647Z,7.50
2022-10-15T11:35:02.597Z,6.37
2022-10-15T11:37:45.222Z,7.47
2022-10-15T11:40:22.017Z,7.27
2022-10-15T11:42:57.271Z,8.07
2022-10-15T11:45:43.884Z,6.37
2022-10-15T11:48:17.416Z,8.53
2022-10-15T11:50:50.118Z,7.83
2022-10-15T11:53:47.554Z,7.87
2022-10-15T11:56:20.928Z,7.43
2022-10-15T11:58:52.253Z,7.93
2022-10-15T12:01:28.197Z,7.83
2022-10-15T12:04:00.501Z,7.30
2022-10-15T12:06:32.317Z,7.30
2022-10-15T12:09:04.053Z,8.83
2022-10-15T12:11:47.233Z,8.33
2022-10-15T12:14:23.386Z,7.93
2022-10-15T12:17:04.944Z,7.20
2022-10-15T12:19:40.707Z,8.70
2022-10-15T12:22:11.540Z,8.03
2022-10-15T12:24:56.384Z,9.33
2022-10-15T12:27:27.123Z,9.10
2022-10-15T12:30:34.206Z,8.03
2022-10-15T12:33:04.801Z,8.60
2022-10-15T12:35:36.907Z,8.97
2022-10-15T12:38:22.827Z,10.10
2022-10-15T12:40:59.944Z,7.37
2022-10-15T12:43:27.960Z,7.63
2022-10-15T12:45:58.250Z,8.47
2022-10-15T12:48:44.287Z,6.47
2022-10-15T12:51:39.514Z,7.03
2022-10-15T12:54:34.941Z,7.47
2022-10-15T12:57:04.826Z,9.33
2022-10-15T12:59:58.096Z,6.43
2022-10-15T13:02:37.037Z,5.93
2022-10-15T13:05:08.259Z,7.13
2022-10-15T13:07:40.561Z,5.97
2022-10-15T13:10:21.452Z,5.57
2022-10-15T13:12:53.639Z,7.67
2022-10-15T13:15:23.489Z,6.00
2022-10-15T13:17:51.430Z,6.27
2022-10-15T13:20:33.774Z,9.60
2022-10-15T13:23:29.329Z,5.40
2022-10-15T13:26:19.251Z,5.20
2022-10-15T13:28:48.263Z,6.10
2022-10-15T13:31:29.057Z,4.73
2022-10-15T13:34:01.369Z,3.87
2022-10-15T13:36:35.953Z,4.67
2022-10-15T13:39:06.659Z,5.07
2022-10-15T13:41:37.885Z,5.33
2022-10-15T13:44:05.964Z,3.40
2022-10-15T13:46:37.138Z,4.10
2022-10-15T13:49:15.148Z,4.27
2022-10-15T13:51:47.446Z,3.30
2022-10-15T13:54:19.928Z,4.03
2022-10-15T13:56:53.267Z,3.63
2022-10-15T13:59:22.200Z,4.20
2022-10-15T14:01:53.851Z,3.57
2022-10-15T14:04:24.348Z,4.03
2022-10-15T14:09:35.841Z,4.97
2022-10-15T14:12:06.997Z,3.43
2022-10-15T14:14:37.283Z,3.60
2022-10-15T14:17:07.675Z,5.17
2022-10-15T14:19:38.034Z,3.70
2022-10-15T14:22:07.670Z,3.73
2022-10-15T14:24:38.554Z,4.60
2022-10-15T14:27:15.491Z,4.87
2022-10-15T14:29:45.540Z,14.87
2022-10-15T14:32:27.821Z,3.63
2022-10-15T14:34:58.951Z,3.10
2022-10-15T14:37:33.250Z,3.57
2022-10-15T14:40:12.482Z,3.47
2022-10-15T14:42:41.749Z,3.23
2022-10-15T14:45:13.785Z,2.93
2022-10-15T14:47:42.550Z,5.90
2022-10-15T14:50:12.242Z,3.57
2022-10-15T14:52:46.133Z,4.27
2022-10-15T14:55:20.390Z,2.93
2022-10-15T14:57:49.872Z,3.27
2022-10-15T15:00:26.575Z,4.37
2022-10-15T15:02:56.838Z,3.37
2022-10-15T15:05:26.166Z,3.60
2022-10-15T15:07:56.899Z,3.20
2022-10-15T15:10:25.568Z,3.10
2022-10-15T15:12:55.680Z,5.03
2022-10-15T15:15:25.222Z,4.33
2022-10-15T15:17:53.222Z,3.30
2022-10-15T15:20:23.650Z,4.07
2022-10-15T15:22:54.075Z,3.43
2022-10-15T15:25:29.264Z,3.70
2022-10-15T15:27:59.367Z,4.17
2022-10-15T15:30:29.897Z,3.27
2022-10-15T15:32:57.628Z,3.53
2022-10-15T15:35:29.913Z,3.53
2022-10-15T15:37:57.611Z,3.90
2022-10-15T15:40:26.858Z,4.00
2022-10-15T15:42:56.157Z,4.03
2022-10-15T15:45:25.428Z,5.03
2022-10-15T15:47:53.267Z,5.03
2022-10-15T15:50:23.163Z,4.33
2022-10-15T15:52:50.856Z,5.10
2022-10-15T15:55:18.596Z,4.50
2022-10-15T15:57:47.674Z,6.17
2022-10-15T16:00:16.703Z,8.87
2022-10-15T16:02:44.714Z,7.13
2022-10-15T16:05:14.873Z,8.27
2022-10-15T16:07:42.891Z,6.27
2022-10-15T16:10:12.001Z,7.93
2022-10-15T16:12:40.136Z,6.10
2022-10-15T16:15:14.711Z,6.77
2022-10-15T16:17:43.172Z,6.37
2022-10-15T16:20:12.666Z,6.60
2022-10-15T16:22:40.446Z,7.70
2022-10-15T16:25:09.496Z,8.50
2022-10-15T16:27:37.470Z,10.23
2022-10-15T16:30:06.200Z,6.30
2022-10-15T16:32:35.252Z,7.33
2022-10-15T16:35:03.012Z,6.37
2022-10-15T16:37:30.725Z,8.50
2022-10-15T16:39:58.833Z,8.30
2022-10-15T16:42:26.640Z,6.90
2022-10-15T16:44:54.361Z,8.47
2022-10-15T16:47:22.370Z,8.97
2022-10-15T16:50:00.415Z,9.07
2022-10-15T16:52:28.516Z,7.97
2022-10-15T16:54:56.439Z,9.13
2022-10-15T16:57:24.399Z,13.87
2022-10-15T16:59:52.070Z,15.93
2022-10-15T17:02:19.989Z,12.50
2022-10-15T17:04:47.760Z,9.57
2022-10-15T17:07:19.821Z,10.80
2022-10-15T17:12:21.499Z,10.83
2022-10-15T17:14:51.813Z,10.77
2022-10-15T17:17:20.138Z,11.10
2022-10-15T17:19:47.880Z,11.53
2022-10-15T17:22:16.985Z,12.67
2022-10-15T17:24:44.935Z,12.63
2022-10-15T17:27:12.628Z,12.83
2022-10-15T17:29:40.517Z,13.10
2022-10-15T17:32:08.199Z,15.97
2022-10-15T17:34:36.072Z,15.70
2022-10-15T17:37:03.750Z,15.37
2022-10-15T17:39:33.197Z,12.43
2022-10-15T17:42:01.359Z,13.93
2022-10-15T17:44:29.191Z,13.63
2022-10-15T17:46:56.957Z,13.53
2022-10-15T17:49:24.703Z,12.17
2022-10-15T17:51:52.505Z,15.27
2022-10-15T17:54:20.484Z,12.70
2022-10-15T17:56:59.667Z,11.93
2022-10-15T17:59:27.447Z,12.37
2022-10-15T18:01:59.497Z,12.77
2022-10-15T18:04:28.383Z,16.67
2022-10-15T18:06:56.117Z,13.23
2022-10-15T18:09:23.996Z,12.63
2022-10-15T18:11:53.072Z,14.10
2022-10-15T18:16:54.076Z,17.03
2022-10-15T18:19:21.988Z,15.00
2022-10-15T18:21:50.089Z,15.03
2022-10-15T18:24:20.994Z,15.93
2022-10-15T18:26:48.893Z,16.47
2022-10-15T18:29:18.540Z,17.70
2022-10-15T18:31:46.708Z,20.30
2022-10-15T18:34:14.513Z,19.10
2022-10-15T18:36:43.537Z,20.27
2022-10-15T18:39:11.739Z,19.93
2022-10-15T18:41:40.311Z,21.03
2022-10-15T18:44:13.111Z,21.57
2022-10-15T18:46:44.639Z,20.90
2022-10-15T18:49:13.146Z,21.83
2022-10-15T18:51:41.496Z,21.07
2022-10-15T18:54:12.082Z,24.10
2022-10-15T18:56:39.947Z,24.53
2022-10-15T18:59:07.650Z,22.60
2022-10-15T19:01:36.410Z,23.60
2022-10-15T19:04:08.029Z,22.67
2022-10-15T19:06:37.849Z,22.63
2022-10-15T19:09:07.223Z,23.63
2022-10-15T19:11:35.757Z,23.70
2022-10-15T19:14:04.031Z,25.83
2022-10-15T19:16:31.972Z,22.80
2022-10-15T19:18:59.772Z,23.17
2022-10-15T19:21:29.019Z,26.40
2022-10-15T19:23:56.809Z,21.07
2022-10-15T19:26:24.781Z,22.10
2022-10-15T19:28:53.511Z,22.43
2022-10-15T19:31:24.928Z,25.20
2022-10-15T19:33:53.152Z,22.30
2022-10-15T19:36:22.076Z,22.10
2022-10-15T19:38:51.423Z,20.53
2022-10-15T19:41:19.663Z,19.80
2022-10-15T19:43:48.864Z,21.20
2022-10-15T19:46:17.086Z,20.10
2022-10-15T19:48:44.794Z,21.07
2022-10-15T19:51:12.594Z,19.80
2022-10-15T19:53:40.649Z,19.57
2022-10-15T19:56:12.013Z,19.33
2022-10-15T19:58:40.130Z,18.37
2022-10-15T20:01:07.888Z,17.63
2022-10-15T20:06:09.381Z,17.93
2022-10-15T20:08:37.272Z,18.13
2022-10-15T20:11:08.020Z,16.93
2022-10-15T20:13:37.488Z,16.37
2022-10-15T20:16:07.284Z,16.27
2022-10-15T20:18:35.857Z,15.93
2022-10-15T20:21:08.203Z,17.87
2022-10-15T20:23:35.936Z,15.93
2022-10-15T20:26:05.505Z,15.37
2022-10-15T20:28:36.244Z,14.77
2022-10-15T20:31:07.809Z,15.80
2022-10-15T20:33:35.620Z,16.97
2022-10-15T20:36:05.166Z,16.43
2022-10-15T20:38:34.522Z,15.53
2022-10-15T20:41:07.683Z,12.80
2022-10-15T20:43:35.591Z,13.83
2022-10-15T20:46:03.693Z,13.90
2022-10-15T20:48:34.758Z,14.87
2022-10-15T20:51:02.523Z,14.87
2022-10-15T20:53:31.356Z,12.73
2022-10-15T20:55:59.279Z,12.20
2022-10-15T20:58:27.112Z,13.73
2022-10-15T21:00:54.825Z,12.17
2022-10-15T21:03:22.690Z,11.90
2022-10-15T21:05:53.202Z,11.13
2022-10-15T21:08:21.074Z,10.47
2022-10-15T21:10:48.790Z,10.13
2022-10-15T21:13:19.572Z,10.00
2022-10-15T21:15:47.299Z,10.60
2022-10-15T21:18:15.683Z,9.13
2022-10-15T21:20:43.374Z,9.53
2022-10-15T21:23:13.752Z,7.57
2022-10-15T21:25:41.531Z,8.77
2022-10-15T21:28:09.296Z,8.27
2022-10-15T21:30:40.667Z,8.20
2022-10-15T21:33:08.329Z,7.30
2022-10-15T21:35:36.226Z,8.07
2022-10-15T21:38:03.901Z,7.97
2022-10-15T21:40:33.116Z,7.20
2022-10-15T21:43:00.824Z,8.33
2022-10-15T21:45:28.510Z,7.97
2022-10-15T21:47:56.624Z,6.63
2022-10-15T21:50:24.332Z,7.27
2022-10-15T21:52:52.081Z,7.23
2022-10-15T21:55:19.835Z,7.13
2022-10-15T21:57:48.882Z,7.00
2022-10-15T22:00:18.089Z,7.63
2022-10-15T22:02:50.487Z,6.97
2022-10-15T22:05:18.415Z,6.53
2022-10-15T22:07:46.181Z,6.70
2022-10-15T22:10:13.949Z,6.43
2022-10-15T22:12:41.650Z,6.03
2022-10-15T22:15:11.523Z,6.10
2022-10-15T22:17:39.305Z,5.90
2022-10-15T22:20:08.057Z,6.70
2022-10-15T22:22:35.862Z,5.83
2022-10-15T22:25:03.609Z,5.77
2022-10-15T22:27:31.309Z,6.03
2022-10-15T22:29:59.009Z,6.77
2022-10-15T22:32:28.363Z,5.63
2022-10-15T22:34:56.243Z,5.53
2022-10-15T22:37:24.009Z,5.83
2022-10-15T22:39:51.700Z,6.87
2022-10-15T22:42:19.413Z,5.73
2022-10-15T22:44:47.142Z,5.00
2022-10-15T22:47:14.853Z,5.50
2022-10-15T22:49:43.881Z,5.27
2022-10-15T22:52:11.618Z,5.53
2022-10-15T22:54:39.298Z,5.30
2022-10-15T22:57:07.046Z,5.53
2022-10-15T22:59:34.758Z,6.10
2022-10-15T23:02:04.162Z,5.10
2022-10-15T23:04:31.872Z,5.30
2022-10-15T23:07:00.974Z,5.37
2022-10-15T23:09:28.723Z,5.37
2022-10-15T23:11:56.439Z,5.20
2022-10-15T23:14:24.121Z,5.00
2022-10-15T23:16:51.835Z,4.97
2022-10-15T23:19:21.126Z,5.47
2022-10-15T23:21:50.470Z,5.63
2022-10-15T23:24:21.871Z,5.07
2022-10-15T23:26:50.692Z,5.20
2022-10-15T23:29:19.925Z,5.47
2022-10-15T23:31:48.388Z,5.30
2022-10-15T23:34:18.593Z,5.00
2022-10-15T23:36:46.775Z,5.63
2022-10-15T23:39:16.833Z,5.47
2022-10-15T23:41:46.327Z,4.70
2022-10-15T23:44:14.356Z,5.00
2022-10-15T23:46:42.812Z,5.67
2022-10-15T23:49:10.761Z,4.40
2022-10-15T23:51:39.058Z,4.73
2022-10-15T23:54:13.979Z,5.17
2022-10-15T23:56:46.107Z,4.73
2022-10-15T23:59:14.520Z,4.57
